createdAt,value
2017-05-05T00:00:27.064Z,10.79
2017-05-05T00:01:07.653Z,10.76
2017-05-05T00:01:48.241Z,10.74
2017-05-05T00:02:28.938Z,10.78
2017-05-05T00:03:09.512Z,10.76
2017-05-05T00:03:50.083Z,10.72
2017-05-05T00:04:30.699Z,10.76
2017-05-05T00:05:11.287Z,10.71
2017-05-05T00:05:51.970Z,10.74
2017-05-05T00:06:32.529Z,10.72
2017-05-05T00:07:13.181Z,10.72
2017-05-05T00:07:53.747Z,10.76
2017-05-05T00:08:34.365Z,10.71
2017-05-05T00:09:14.948Z,10.69
2017-05-05T00:09:55.551Z,10.68
2017-05-05T00:10:36.174Z,10.72
2017-05-05T00:11:16.782Z,10.69
2017-05-05T00:11:57.360Z,10.79
2017-05-05T00:12:37.935Z,10.71
2017-05-05T00:13:18.498Z,10.72
2017-05-05T00:13:59.077Z,10.76
2017-05-05T00:14:39.651Z,10.75
2017-05-05T00:15:20.217Z,10.75
2017-05-05T00:16:00.830Z,10.74
2017-05-05T00:16:41.402Z,10.69
2017-05-05T00:17:21.998Z,10.74
2017-05-05T00:18:02.602Z,10.72
2017-05-05T00:18:43.176Z,10.75
2017-05-05T00:19:23.794Z,10.69
2017-05-05T00:20:04.415Z,10.75
2017-05-05T00:20:45.008Z,10.71
2017-05-05T00:21:25.584Z,10.78
2017-05-05T00:22:06.243Z,10.74
2017-05-05T00:22:46.836Z,10.72
2017-05-05T00:23:27.422Z,10.72
2017-05-05T00:24:08.021Z,10.72
2017-05-05T00:24:48.606Z,10.69
2017-05-05T00:25:29.196Z,10.75
2017-05-05T00:26:09.787Z,10.74
2017-05-05T00:26:50.361Z,10.75
2017-05-05T00:27:30.949Z,10.69
2017-05-05T00:28:11.508Z,10.79
2017-05-05T00:28:52.093Z,10.71
2017-05-05T00:29:32.649Z,10.69
2017-05-05T00:30:13.222Z,10.71
2017-05-05T00:30:53.838Z,10.68
2017-05-05T00:31:34.411Z,10.71
2017-05-05T00:32:14.982Z,10.68
2017-05-05T00:32:55.678Z,10.68
2017-05-05T00:33:36.326Z,10.63
2017-05-05T00:34:16.938Z,10.71
2017-05-05T00:34:57.517Z,10.71
2017-05-05T00:35:38.151Z,10.61
2017-05-05T00:36:18.738Z,10.64
2017-05-05T00:36:59.338Z,10.57
2017-05-05T00:37:39.905Z,10.6
2017-05-05T00:38:20.539Z,10.71
2017-05-05T00:39:01.106Z,10.67
2017-05-05T00:39:41.719Z,10.61
2017-05-05T00:40:22.418Z,10.59
2017-05-05T00:41:03.007Z,10.63
2017-05-05T00:41:43.632Z,10.61
2017-05-05T00:42:24.215Z,10.59
2017-05-05T00:43:04.790Z,10.61
2017-05-05T00:43:45.372Z,10.54
2017-05-05T00:44:25.964Z,10.51
2017-05-05T00:45:06.556Z,10.59
2017-05-05T00:45:47.173Z,10.54
2017-05-05T00:46:27.749Z,10.59
2017-05-05T00:47:08.355Z,10.64
2017-05-05T00:47:48.960Z,10.61
2017-05-05T00:48:29.514Z,10.6
2017-05-05T00:49:10.088Z,10.68
2017-05-05T00:49:50.662Z,10.59
2017-05-05T00:50:31.241Z,10.51
2017-05-05T00:51:11.822Z,10.54
2017-05-05T00:51:55.106Z,10.48
2017-05-05T00:52:35.680Z,10.57
2017-05-05T00:53:16.248Z,10.64
2017-05-05T00:53:56.818Z,10.57
2017-05-05T00:54:37.426Z,10.63
2017-05-05T00:55:18.005Z,10.64
2017-05-05T00:55:58.576Z,10.61
2017-05-05T00:56:39.171Z,10.61
2017-05-05T00:57:19.758Z,10.6
2017-05-05T00:58:00.332Z,10.59
2017-05-05T00:58:40.955Z,10.61
2017-05-05T00:59:21.498Z,10.63
2017-05-05T01:00:02.091Z,10.6
2017-05-05T01:00:42.700Z,10.6
2017-05-05T01:01:23.262Z,10.64
2017-05-05T01:02:03.836Z,10.57
2017-05-05T01:02:44.413Z,10.67
2017-05-05T01:03:24.990Z,10.59
2017-05-05T01:04:05.561Z,10.59
2017-05-05T01:04:46.122Z,10.63
2017-05-05T01:05:26.715Z,10.71
2017-05-05T01:06:07.323Z,10.57
2017-05-05T01:06:47.916Z,10.6
2017-05-05T01:07:28.558Z,10.69
2017-05-05T01:08:09.149Z,10.71
2017-05-05T01:08:49.757Z,10.68
2017-05-05T01:09:30.320Z,10.74
2017-05-05T01:10:10.909Z,10.76
2017-05-05T01:10:51.485Z,10.74
2017-05-05T01:11:32.053Z,10.69
2017-05-05T01:12:12.665Z,10.72
2017-05-05T01:12:53.235Z,10.76
2017-05-05T01:13:33.818Z,10.67
2017-05-05T01:14:14.375Z,10.75
2017-05-05T01:14:54.968Z,10.72
2017-05-05T01:15:35.551Z,10.69
2017-05-05T01:16:16.137Z,10.72
2017-05-05T01:16:56.751Z,10.71
2017-05-05T01:17:37.329Z,10.69
2017-05-05T01:18:17.943Z,10.74
2017-05-05T01:18:58.519Z,10.75
2017-05-05T01:19:39.105Z,10.74
2017-05-05T01:20:19.672Z,10.72
2017-05-05T01:21:00.255Z,10.61
2017-05-05T01:21:40.836Z,10.69
2017-05-05T01:22:21.422Z,10.6
2017-05-05T01:23:02.005Z,10.61
2017-05-05T01:23:42.576Z,10.59
2017-05-05T01:24:23.163Z,10.67
2017-05-05T01:25:03.729Z,10.56
2017-05-05T01:25:44.315Z,10.67
2017-05-05T01:26:24.877Z,10.57
2017-05-05T01:27:05.444Z,10.56
2017-05-05T01:27:46.042Z,10.63
2017-05-05T01:28:26.623Z,10.61
2017-05-05T01:29:07.191Z,10.56
2017-05-05T01:29:47.784Z,10.6
2017-05-05T01:30:28.362Z,10.54
2017-05-05T01:31:08.943Z,10.63
2017-05-05T01:31:49.520Z,10.63
2017-05-05T01:32:30.099Z,10.54
2017-05-05T01:33:10.678Z,10.6
2017-05-05T01:33:51.248Z,10.57
2017-05-05T01:34:31.810Z,10.53
2017-05-05T01:35:12.410Z,10.44
2017-05-05T01:35:53.012Z,10.54
2017-05-05T01:36:33.582Z,10.54
2017-05-05T01:37:14.165Z,10.54
2017-05-05T01:37:54.746Z,10.49
2017-05-05T01:38:35.321Z,10.44
2017-05-05T01:39:15.914Z,10.53
2017-05-05T01:39:56.489Z,10.48
2017-05-05T01:40:37.089Z,10.44
2017-05-05T01:41:17.703Z,10.4
2017-05-05T01:41:58.269Z,10.46
2017-05-05T01:42:38.872Z,10.42
2017-05-05T01:43:19.448Z,10.49
2017-05-05T01:44:00.050Z,10.49
2017-05-05T01:44:40.629Z,10.42
2017-05-05T01:45:21.241Z,10.49
2017-05-05T01:46:01.810Z,10.4
2017-05-05T01:46:42.441Z,10.46
2017-05-05T01:47:23.024Z,10.49
2017-05-05T01:48:03.630Z,10.44
2017-05-05T01:48:44.221Z,10.44
2017-05-05T01:49:24.805Z,10.48
2017-05-05T01:50:05.407Z,10.54
2017-05-05T01:50:46.009Z,10.51
2017-05-05T01:51:26.596Z,10.51
2017-05-05T01:52:07.202Z,10.46
2017-05-05T01:52:47.803Z,10.51
2017-05-05T01:53:28.387Z,10.4
2017-05-05T01:54:09.014Z,10.53
2017-05-05T01:54:49.614Z,10.38
2017-05-05T01:55:30.225Z,10.4
2017-05-05T01:56:10.791Z,10.41
2017-05-05T01:56:51.411Z,10.46
2017-05-05T01:57:31.998Z,10.53
2017-05-05T01:58:12.606Z,10.46
2017-05-05T01:58:53.235Z,10.46
2017-05-05T01:59:33.832Z,10.49
2017-05-05T02:00:14.410Z,10.48
2017-05-05T02:00:54.989Z,10.46
2017-05-05T02:01:35.635Z,10.53
2017-05-05T02:02:16.208Z,10.51
2017-05-05T02:02:56.846Z,10.44
2017-05-05T02:03:37.435Z,10.44
2017-05-05T02:04:18.022Z,10.38
2017-05-05T02:04:58.639Z,10.42
2017-05-05T02:05:39.236Z,10.35
2017-05-05T02:06:19.806Z,10.38
2017-05-05T02:07:00.395Z,10.4
2017-05-05T02:07:40.968Z,10.41
2017-05-05T02:08:21.540Z,10.4
2017-05-05T02:09:02.121Z,10.35
2017-05-05T02:09:42.716Z,10.38
2017-05-05T02:10:23.283Z,10.41
2017-05-05T02:11:03.936Z,10.4
2017-05-05T02:11:44.531Z,10.4
2017-05-05T02:12:25.091Z,10.51
2017-05-05T02:13:05.674Z,10.54
2017-05-05T02:13:46.243Z,10.35
2017-05-05T02:14:26.855Z,10.44
2017-05-05T02:15:07.450Z,10.41
2017-05-05T02:15:48.063Z,10.4
2017-05-05T02:16:28.692Z,10.4
2017-05-05T02:17:09.295Z,10.37
2017-05-05T02:17:49.938Z,10.51
2017-05-05T02:18:30.629Z,10.44
2017-05-05T02:19:11.239Z,10.42
2017-05-05T02:19:51.811Z,10.37
2017-05-05T02:20:32.438Z,10.49
2017-05-05T02:21:13.010Z,10.42
2017-05-05T02:21:53.667Z,10.46
2017-05-05T02:22:34.289Z,10.46
2017-05-05T02:23:14.870Z,10.44
2017-05-05T02:23:55.466Z,10.44
2017-05-05T02:24:36.054Z,10.4
2017-05-05T02:25:16.622Z,10.51
2017-05-05T02:25:57.181Z,10.4
2017-05-05T02:26:37.780Z,10.42
2017-05-05T02:27:18.403Z,10.53
2017-05-05T02:27:58.993Z,10.51
2017-05-05T02:28:39.554Z,10.57
2017-05-05T02:29:20.190Z,10.49
2017-05-05T02:30:00.759Z,10.48
2017-05-05T02:30:41.345Z,10.53
2017-05-05T02:31:21.929Z,10.54
2017-05-05T02:32:02.494Z,10.49
2017-05-05T02:32:43.111Z,10.44
2017-05-05T02:33:23.702Z,10.49
2017-05-05T02:34:04.290Z,10.53
2017-05-05T02:34:44.891Z,10.46
2017-05-05T02:35:25.501Z,10.53
2017-05-05T02:36:06.124Z,10.54
2017-05-05T02:36:46.715Z,10.53
2017-05-05T02:37:27.353Z,10.46
2017-05-05T02:38:07.975Z,10.57
2017-05-05T02:38:48.585Z,10.56
2017-05-05T02:39:29.223Z,10.57
2017-05-05T02:40:09.810Z,10.54
2017-05-05T02:40:50.425Z,10.53
2017-05-05T02:41:31.006Z,10.56
2017-05-05T02:42:11.581Z,10.53
2017-05-05T02:42:52.198Z,10.54
2017-05-05T02:43:32.767Z,10.6
2017-05-05T02:44:13.359Z,10.6
2017-05-05T02:44:53.946Z,10.59
2017-05-05T02:45:34.574Z,10.54
2017-05-05T02:46:15.157Z,10.61
2017-05-05T02:46:55.728Z,10.6
2017-05-05T02:47:36.315Z,10.54
2017-05-05T02:48:16.891Z,10.49
2017-05-05T02:48:57.461Z,10.56
2017-05-05T02:49:38.063Z,10.57
2017-05-05T02:50:18.668Z,10.57
2017-05-05T02:50:59.262Z,10.56
2017-05-05T02:51:39.860Z,10.46
2017-05-05T02:52:20.570Z,10.53
2017-05-05T02:53:01.079Z,10.56
2017-05-05T02:53:41.680Z,10.56
2017-05-05T02:54:22.265Z,10.48
2017-05-05T02:55:02.827Z,10.56
2017-05-05T02:55:43.406Z,10.49
2017-05-05T02:56:23.997Z,10.48
2017-05-05T02:57:04.645Z,10.54
2017-05-05T02:57:45.347Z,10.64
2017-05-05T02:58:25.936Z,10.64
2017-05-05T02:59:06.533Z,10.64
2017-05-05T02:59:47.217Z,10.63
2017-05-05T03:00:27.835Z,10.56
2017-05-05T03:01:08.427Z,10.6
2017-05-05T03:01:49.011Z,10.63
2017-05-05T03:02:29.598Z,10.63
2017-05-05T03:03:10.194Z,10.67
2017-05-05T03:03:50.833Z,10.61
2017-05-05T03:04:31.405Z,10.54
2017-05-05T03:05:11.985Z,10.61
2017-05-05T03:05:52.559Z,10.6
2017-05-05T03:06:33.184Z,10.61
2017-05-05T03:07:13.781Z,10.6
2017-05-05T03:07:54.375Z,10.57
2017-05-05T03:08:34.963Z,10.6
2017-05-05T03:09:15.596Z,10.63
2017-05-05T03:09:56.165Z,10.61
2017-05-05T03:10:36.789Z,10.57
2017-05-05T03:11:17.376Z,10.61
2017-05-05T03:11:58.027Z,10.56
2017-05-05T03:12:38.624Z,10.57
2017-05-05T03:13:19.214Z,10.57
2017-05-05T03:13:59.806Z,10.59
2017-05-05T03:14:40.477Z,10.54
2017-05-05T03:15:21.062Z,10.53
2017-05-05T03:16:01.632Z,10.54
2017-05-05T03:16:42.287Z,10.63
2017-05-05T03:17:22.926Z,10.59
2017-05-05T03:18:03.513Z,10.54
2017-05-05T03:18:44.138Z,10.67
2017-05-05T03:19:24.722Z,10.69
2017-05-05T03:20:05.359Z,10.49
2017-05-05T03:20:45.938Z,10.61
2017-05-05T03:21:26.578Z,10.64
2017-05-05T03:22:07.154Z,10.61
2017-05-05T03:22:47.770Z,10.6
2017-05-05T03:23:28.347Z,10.54
2017-05-05T03:24:08.946Z,10.51
2017-05-05T03:24:49.512Z,10.56
2017-05-05T03:25:30.103Z,10.63
2017-05-05T03:26:10.701Z,10.6
2017-05-05T03:26:51.270Z,10.67
2017-05-05T03:27:31.837Z,10.63
2017-05-05T03:28:12.481Z,10.59
2017-05-05T03:28:53.060Z,10.61
2017-05-05T03:29:33.704Z,10.6
2017-05-05T03:30:14.278Z,10.64
2017-05-05T03:30:54.941Z,10.53
2017-05-05T03:31:35.574Z,10.54
2017-05-05T03:32:16.199Z,10.64
2017-05-05T03:32:56.774Z,10.54
2017-05-05T03:33:37.346Z,10.53
2017-05-05T03:34:17.933Z,10.6
2017-05-05T03:34:58.522Z,10.53
2017-05-05T03:35:39.152Z,10.63
2017-05-05T03:36:19.719Z,10.49
2017-05-05T03:37:00.356Z,10.53
2017-05-05T03:37:40.997Z,10.6
2017-05-05T03:38:21.588Z,10.63
2017-05-05T03:39:02.199Z,10.63
2017-05-05T03:39:42.802Z,10.63
2017-05-05T03:40:23.414Z,10.61
2017-05-05T03:41:03.991Z,10.61
2017-05-05T03:41:44.614Z,10.6
2017-05-05T03:42:25.214Z,10.59
2017-05-05T03:43:05.805Z,10.53
2017-05-05T03:43:46.395Z,10.51
2017-05-05T03:44:27.013Z,10.61
2017-05-05T03:45:07.577Z,10.63
2017-05-05T03:45:48.151Z,10.53
2017-05-05T03:46:28.771Z,10.56
2017-05-05T03:47:09.365Z,10.61
2017-05-05T03:47:49.932Z,10.56
2017-05-05T03:48:30.498Z,10.6
2017-05-05T03:49:11.078Z,10.57
2017-05-05T03:49:51.667Z,10.61
2017-05-05T03:50:32.324Z,10.68
2017-05-05T03:51:12.905Z,10.69
2017-05-05T03:51:53.487Z,10.64
2017-05-05T03:52:34.076Z,10.63
2017-05-05T03:53:14.663Z,10.69
2017-05-05T03:53:55.245Z,10.71
2017-05-05T03:54:35.832Z,10.69
2017-05-05T03:55:16.446Z,10.69
2017-05-05T03:55:57.055Z,10.67
2017-05-05T03:56:37.632Z,10.61
2017-05-05T03:57:18.241Z,10.68
2017-05-05T03:57:58.854Z,10.72
2017-05-05T03:58:39.445Z,10.75
2017-05-05T03:59:20.034Z,10.71
2017-05-05T04:00:00.608Z,10.68
2017-05-05T04:00:41.213Z,10.75
2017-05-05T04:01:21.839Z,10.68
2017-05-05T04:02:02.412Z,10.72
2017-05-05T04:02:42.975Z,10.74
2017-05-05T04:03:23.591Z,10.72
2017-05-05T04:04:04.158Z,10.74
2017-05-05T04:04:44.780Z,10.69
2017-05-05T04:05:25.455Z,10.68
2017-05-05T04:06:06.021Z,10.75
2017-05-05T04:06:46.632Z,10.72
2017-05-05T04:07:27.234Z,10.76
2017-05-05T04:08:07.818Z,10.69
2017-05-05T04:08:48.397Z,10.75
2017-05-05T04:09:28.997Z,10.79
2017-05-05T04:10:09.622Z,10.64
2017-05-05T04:10:50.184Z,10.72
2017-05-05T04:11:30.781Z,10.67
2017-05-05T04:12:11.350Z,10.72
2017-05-05T04:12:51.940Z,10.67
2017-05-05T04:13:32.612Z,10.72
2017-05-05T04:14:13.263Z,10.63
2017-05-05T04:14:53.821Z,10.71
2017-05-05T04:15:34.579Z,10.69
2017-05-05T04:16:15.339Z,10.74
2017-05-05T04:16:55.904Z,10.74
2017-05-05T04:17:36.501Z,10.79
2017-05-05T04:18:17.106Z,10.69
2017-05-05T04:18:57.688Z,10.76
2017-05-05T04:19:38.273Z,10.72
2017-05-05T04:20:18.866Z,10.76
2017-05-05T04:20:59.447Z,10.72
2017-05-05T04:21:40.013Z,10.75
2017-05-05T04:22:20.576Z,10.72
2017-05-05T04:23:01.150Z,10.79
2017-05-05T04:23:41.756Z,10.76
2017-05-05T04:24:22.322Z,10.75
2017-05-05T04:25:02.943Z,10.79
2017-05-05T04:25:43.517Z,10.76
2017-05-05T04:26:24.107Z,10.72
2017-05-05T04:27:04.681Z,10.76
2017-05-05T04:27:45.272Z,10.79
2017-05-05T04:28:25.843Z,10.74
2017-05-05T04:29:06.437Z,10.74
2017-05-05T04:29:47.023Z,10.76
2017-05-05T04:30:27.600Z,10.75
2017-05-05T04:31:08.203Z,10.81
2017-05-05T04:31:48.779Z,10.75
2017-05-05T04:32:29.367Z,10.78
2017-05-05T04:33:09.992Z,10.79
2017-05-05T04:33:50.570Z,10.76
2017-05-05T04:34:31.186Z,10.76
2017-05-05T04:35:11.837Z,10.78
2017-05-05T04:35:52.399Z,10.79
2017-05-05T04:36:32.979Z,10.86
2017-05-05T04:37:13.579Z,10.74
2017-05-05T04:37:54.150Z,10.74
2017-05-05T04:38:34.715Z,10.78
2017-05-05T04:39:15.352Z,10.75
2017-05-05T04:39:55.899Z,10.78
2017-05-05T04:40:36.470Z,10.72
2017-05-05T04:41:17.123Z,10.76
2017-05-05T04:41:57.696Z,10.79
2017-05-05T04:42:38.305Z,10.78
2017-05-05T04:43:18.954Z,10.76
2017-05-05T04:43:59.542Z,10.76
2017-05-05T04:44:40.125Z,10.75
2017-05-05T04:45:20.706Z,10.75
2017-05-05T04:46:01.294Z,10.74
2017-05-05T04:46:41.925Z,10.76
2017-05-05T04:47:22.497Z,10.76
2017-05-05T04:48:03.087Z,10.78
2017-05-05T04:48:43.660Z,10.76
2017-05-05T04:49:24.230Z,10.79
2017-05-05T04:50:04.808Z,10.84
2017-05-05T04:50:45.393Z,10.72
2017-05-05T04:51:25.993Z,10.74
2017-05-05T04:52:06.567Z,10.76
2017-05-05T04:52:47.168Z,10.78
2017-05-05T04:53:27.757Z,10.75
2017-05-05T04:54:08.331Z,10.78
2017-05-05T04:54:48.933Z,10.76
2017-05-05T04:55:29.537Z,10.79
2017-05-05T04:56:10.124Z,10.75
2017-05-05T04:56:50.731Z,10.76
2017-05-05T04:57:31.316Z,10.87
2017-05-05T04:58:11.893Z,10.78
2017-05-05T04:58:52.467Z,10.82
2017-05-05T04:59:33.042Z,10.75
2017-05-05T05:00:13.710Z,10.74
2017-05-05T05:00:54.304Z,10.78
2017-05-05T05:01:34.894Z,10.72
2017-05-05T05:02:15.512Z,10.87
2017-05-05T05:02:56.123Z,10.75
2017-05-05T05:03:36.709Z,10.87
2017-05-05T05:04:17.286Z,10.84
2017-05-05T05:04:57.870Z,10.84
2017-05-05T05:05:38.489Z,10.92
2017-05-05T05:06:19.065Z,10.84
2017-05-05T05:06:59.672Z,10.87
2017-05-05T05:07:40.244Z,10.87
2017-05-05T05:08:20.928Z,10.86
2017-05-05T05:09:01.577Z,10.9
2017-05-05T05:09:42.207Z,10.92
2017-05-05T05:10:22.801Z,10.93
2017-05-05T05:11:03.410Z,10.89
2017-05-05T05:11:44.015Z,10.89
2017-05-05T05:12:24.760Z,10.94
2017-05-05T05:13:05.357Z,10.99
2017-05-05T05:13:45.939Z,10.9
2017-05-05T05:14:26.514Z,10.99
2017-05-05T05:15:07.102Z,10.97
2017-05-05T05:15:47.695Z,10.99
2017-05-05T05:16:28.272Z,10.99
2017-05-05T05:17:08.856Z,10.9
2017-05-05T05:17:49.453Z,10.9
2017-05-05T05:18:30.074Z,10.9
2017-05-05T05:19:10.655Z,10.96
2017-05-05T05:19:51.304Z,10.97
2017-05-05T05:20:31.908Z,10.93
2017-05-05T05:21:12.476Z,10.96
2017-05-05T05:21:53.079Z,11.02
2017-05-05T05:22:33.678Z,10.9
2017-05-05T05:23:14.257Z,10.9
2017-05-05T05:23:54.824Z,10.93
2017-05-05T05:24:35.428Z,10.93
2017-05-05T05:25:16.015Z,10.94
2017-05-05T05:25:56.628Z,11.02
2017-05-05T05:26:37.227Z,10.93
2017-05-05T05:27:17.830Z,10.93
2017-05-05T05:27:58.434Z,10.92
2017-05-05T05:28:39.008Z,10.93
2017-05-05T05:29:19.622Z,10.93
2017-05-05T05:30:00.227Z,10.99
2017-05-05T05:30:40.814Z,10.9
2017-05-05T05:31:21.425Z,10.92
2017-05-05T05:32:02.141Z,10.92
2017-05-05T05:32:42.816Z,10.87
2017-05-05T05:33:23.408Z,10.96
2017-05-05T05:34:04.008Z,10.97
2017-05-05T05:34:44.632Z,10.89
2017-05-05T05:35:25.207Z,10.9
2017-05-05T05:36:05.804Z,10.99
2017-05-05T05:36:46.392Z,11
2017-05-05T05:37:27.002Z,10.9
2017-05-05T05:38:07.604Z,10.94
2017-05-05T05:38:48.236Z,10.92
2017-05-05T05:39:29.016Z,10.96
2017-05-05T05:40:09.593Z,11.02
2017-05-05T05:40:50.203Z,11.05
2017-05-05T05:41:30.779Z,11.1
2017-05-05T05:42:11.380Z,11.02
2017-05-05T05:42:52.050Z,11.04
2017-05-05T05:43:32.680Z,11.02
2017-05-05T05:44:13.293Z,11.12
2017-05-05T05:44:53.915Z,11.1
2017-05-05T05:45:34.482Z,11.12
2017-05-05T05:46:15.059Z,11.33
2017-05-05T05:46:55.743Z,11.5
2017-05-05T05:47:36.400Z,11.62
2017-05-05T05:48:17.092Z,11.83
2017-05-05T05:48:57.740Z,12
2017-05-05T05:49:38.325Z,12.22
2017-05-05T05:50:18.945Z,12.39
2017-05-05T05:50:59.536Z,12.5
2017-05-05T05:51:40.117Z,12.6
2017-05-05T05:52:20.786Z,12.8
2017-05-05T05:53:01.381Z,12.91
2017-05-05T05:53:41.970Z,13.01
2017-05-05T05:54:22.550Z,13.05
2017-05-05T05:55:03.180Z,13.23
2017-05-05T05:55:43.802Z,13.35
2017-05-05T05:56:24.458Z,13.44
2017-05-05T05:57:05.075Z,13.39
2017-05-05T05:57:45.724Z,13.52
2017-05-05T05:58:26.306Z,13.59
2017-05-05T05:59:06.924Z,13.67
2017-05-05T05:59:47.530Z,13.77
2017-05-05T06:00:28.160Z,13.77
2017-05-05T06:01:08.726Z,13.92
2017-05-05T06:01:49.333Z,13.89
2017-05-05T06:02:29.932Z,13.97
2017-05-05T06:03:10.558Z,13.97
2017-05-05T06:03:51.235Z,14.08
2017-05-05T06:04:31.834Z,14.03
2017-05-05T06:05:12.427Z,14.03
2017-05-05T06:05:53.057Z,14.1
2017-05-05T06:06:33.660Z,14.11
2017-05-05T06:07:14.294Z,14.07
2017-05-05T06:07:54.916Z,14.08
2017-05-05T06:08:35.513Z,14.08
2017-05-05T06:09:16.140Z,14.1
2017-05-05T06:09:56.754Z,14.11
2017-05-05T06:10:37.401Z,14.15
2017-05-05T06:11:18.014Z,14.14
2017-05-05T06:11:58.675Z,14.26
2017-05-05T06:12:39.269Z,14.3
2017-05-05T06:13:19.836Z,14.28
2017-05-05T06:14:00.431Z,14.29
2017-05-05T06:14:41.034Z,14.33
2017-05-05T06:15:21.677Z,14.35
2017-05-05T06:16:02.302Z,14.3
2017-05-05T06:16:42.861Z,14.41
2017-05-05T06:17:23.641Z,14.51
2017-05-05T06:18:04.226Z,14.53
2017-05-05T06:18:44.854Z,14.47
2017-05-05T06:19:25.466Z,14.41
2017-05-05T06:20:06.097Z,14.53
2017-05-05T06:20:46.667Z,14.55
2017-05-05T06:21:27.263Z,14.51
2017-05-05T06:22:07.872Z,14.53
2017-05-05T06:22:48.470Z,14.59
2017-05-05T06:23:29.113Z,14.58
2017-05-05T06:24:09.750Z,14.58
2017-05-05T06:24:50.370Z,14.51
2017-05-05T06:25:30.981Z,14.48
2017-05-05T06:26:11.565Z,14.53
2017-05-05T06:26:52.187Z,14.36
2017-05-05T06:27:32.799Z,14.23
2017-05-05T06:28:13.371Z,14.11
2017-05-05T06:28:53.978Z,13.96
2017-05-05T06:29:34.553Z,13.9
2017-05-05T06:30:15.142Z,13.77
2017-05-05T06:30:55.713Z,13.67
2017-05-05T06:31:36.327Z,13.41
2017-05-05T06:32:17.005Z,13.53
2017-05-05T06:32:57.600Z,13.37
2017-05-05T06:33:38.193Z,13.41
2017-05-05T06:34:18.757Z,13.25
2017-05-05T06:34:59.332Z,13.13
2017-05-05T06:35:39.920Z,13.11
2017-05-05T06:36:20.538Z,13.11
2017-05-05T06:37:01.106Z,13.03
2017-05-05T06:37:41.812Z,13
2017-05-05T06:38:22.412Z,12.85
2017-05-05T06:39:03.003Z,12.78
2017-05-05T06:39:43.579Z,12.8
2017-05-05T06:40:24.153Z,12.72
2017-05-05T06:41:04.758Z,12.76
2017-05-05T06:41:45.318Z,12.68
2017-05-05T06:42:25.935Z,12.6
2017-05-05T06:43:06.529Z,12.55
2017-05-05T06:43:47.107Z,12.55
2017-05-05T06:44:27.698Z,12.47
2017-05-05T06:45:08.306Z,12.43
2017-05-05T06:45:48.886Z,12.42
2017-05-05T06:46:29.481Z,12.43
2017-05-05T06:47:10.125Z,12.4
2017-05-05T06:47:50.745Z,12.35
2017-05-05T06:48:31.378Z,12.4
2017-05-05T06:49:11.943Z,12.39
2017-05-05T06:49:52.563Z,12.27
2017-05-05T06:50:33.175Z,12.28
2017-05-05T06:51:13.764Z,12.28
2017-05-05T06:51:54.388Z,12.35
2017-05-05T06:52:34.985Z,12.35
2017-05-05T06:53:15.583Z,12.31
2017-05-05T06:53:56.179Z,12.35
2017-05-05T06:54:36.808Z,12.22
2017-05-05T06:55:17.431Z,12.21
2017-05-05T06:55:58.070Z,12.24
2017-05-05T06:56:38.677Z,12.13
2017-05-05T06:57:19.342Z,12.28
2017-05-05T06:57:59.918Z,12.27
2017-05-05T06:58:40.529Z,12.27
2017-05-05T06:59:21.144Z,12.24
2017-05-05T07:00:01.752Z,12.24
2017-05-05T07:00:42.320Z,12.22
2017-05-05T07:01:22.928Z,12.07
2017-05-05T07:02:03.526Z,12.07
2017-05-05T07:02:44.119Z,12.1
2017-05-05T07:03:24.756Z,12.22
2017-05-05T07:04:05.342Z,12.17
2017-05-05T07:04:45.927Z,12.09
2017-05-05T07:05:26.512Z,12.1
2017-05-05T07:06:07.105Z,12.21
2017-05-05T07:06:47.689Z,12.07
2017-05-05T07:07:28.338Z,12.22
2017-05-05T07:08:08.929Z,12.15
2017-05-05T07:08:49.532Z,12.1
2017-05-05T07:09:30.113Z,12.07
2017-05-05T07:10:10.884Z,12.13
2017-05-05T07:10:51.529Z,12.1
2017-05-05T07:11:32.101Z,12.15
2017-05-05T07:12:12.771Z,12.21
2017-05-05T07:12:53.373Z,12.15
2017-05-05T07:13:33.960Z,12.09
2017-05-05T07:14:14.547Z,12.13
2017-05-05T07:14:55.128Z,12.12
2017-05-05T07:15:35.716Z,12.09
2017-05-05T07:16:16.356Z,12.12
2017-05-05T07:16:56.974Z,12.2
2017-05-05T07:17:37.599Z,12.18
2017-05-05T07:18:18.226Z,12.1
2017-05-05T07:18:58.834Z,12.15
2017-05-05T07:19:39.455Z,12.1
2017-05-05T07:20:20.045Z,12.12
2017-05-05T07:21:00.630Z,12.09
2017-05-05T07:21:41.251Z,12.09
2017-05-05T07:22:21.881Z,12
2017-05-05T07:23:02.491Z,12.09
2017-05-05T07:23:43.094Z,11.95
2017-05-05T07:24:23.685Z,11.95
2017-05-05T07:25:04.271Z,12.02
2017-05-05T07:25:44.840Z,12.02
2017-05-05T07:26:25.421Z,12.02
2017-05-05T07:27:06.040Z,12.06
2017-05-05T07:27:46.679Z,12.02
2017-05-05T07:28:27.276Z,11.9
2017-05-05T07:29:07.858Z,11.88
2017-05-05T07:29:48.451Z,12.03
2017-05-05T07:30:29.030Z,11.91
2017-05-05T07:31:09.610Z,12.03
2017-05-05T07:31:50.195Z,11.95
2017-05-05T07:32:30.792Z,11.91
2017-05-05T07:33:11.370Z,12
2017-05-05T07:33:51.955Z,11.91
2017-05-05T07:34:32.549Z,11.91
2017-05-05T07:35:13.133Z,11.97
2017-05-05T07:35:53.720Z,11.9
2017-05-05T07:36:34.333Z,11.84
2017-05-05T07:37:14.938Z,11.81
2017-05-05T07:37:55.510Z,11.88
2017-05-05T07:38:36.117Z,11.8
2017-05-05T07:39:16.729Z,11.8
2017-05-05T07:39:57.298Z,11.87
2017-05-05T07:40:37.871Z,11.91
2017-05-05T07:41:18.460Z,11.73
2017-05-05T07:41:59.020Z,11.95
2017-05-05T07:42:39.602Z,11.81
2017-05-05T07:43:20.193Z,11.78
2017-05-05T07:44:00.784Z,11.83
2017-05-05T07:44:41.375Z,11.83
2017-05-05T07:45:22.032Z,11.81
2017-05-05T07:46:02.635Z,11.83
2017-05-05T07:46:43.220Z,11.83
2017-05-05T07:47:23.834Z,11.8
2017-05-05T07:48:04.431Z,11.78
2017-05-05T07:48:45.046Z,11.78
2017-05-05T07:49:25.650Z,11.83
2017-05-05T07:50:06.257Z,11.87
2017-05-05T07:50:46.864Z,11.84
2017-05-05T07:51:27.453Z,11.81
2017-05-05T07:52:08.052Z,11.78
2017-05-05T07:52:48.649Z,11.86
2017-05-05T07:53:29.303Z,11.78
2017-05-05T07:54:09.852Z,11.81
2017-05-05T07:54:50.422Z,11.83
2017-05-05T07:55:31.034Z,11.84
2017-05-05T07:56:11.606Z,11.88
2017-05-05T07:56:52.201Z,11.88
2017-05-05T07:57:33.199Z,11.81
2017-05-05T07:58:13.845Z,11.86
2017-05-05T07:58:54.456Z,11.8
2017-05-05T07:59:35.036Z,11.81
2017-05-05T08:00:15.615Z,11.81
2017-05-05T08:00:56.208Z,11.8
2017-05-05T08:01:36.795Z,11.81
2017-05-05T08:02:17.485Z,11.81
2017-05-05T08:02:58.114Z,11.81
2017-05-05T08:03:38.679Z,11.86
2017-05-05T08:04:19.311Z,11.84
2017-05-05T08:04:59.881Z,11.83
2017-05-05T08:05:40.465Z,11.84
2017-05-05T08:06:21.050Z,11.78
2017-05-05T08:07:01.627Z,11.91
2017-05-05T08:07:42.208Z,11.91
2017-05-05T08:08:22.846Z,11.94
2017-05-05T08:09:03.405Z,11.86
2017-05-05T08:09:44.030Z,11.95
2017-05-05T08:10:24.605Z,11.88
2017-05-05T08:11:05.191Z,11.87
2017-05-05T08:11:45.764Z,11.81
2017-05-05T08:12:26.369Z,11.83
2017-05-05T08:13:06.982Z,11.8
2017-05-05T08:13:47.585Z,11.83
2017-05-05T08:14:28.175Z,11.8
2017-05-05T08:15:08.759Z,11.88
2017-05-05T08:15:49.345Z,11.81
2017-05-05T08:16:31.628Z,11.83
2017-05-05T08:17:12.201Z,11.78
2017-05-05T08:17:52.841Z,11.78
2017-05-05T08:18:33.403Z,11.8
2017-05-05T08:19:13.986Z,11.87
2017-05-05T08:19:54.572Z,11.88
2017-05-05T08:20:35.198Z,11.86
2017-05-05T08:21:15.783Z,11.95
2017-05-05T08:21:56.451Z,11.9
2017-05-05T08:22:37.047Z,11.99
2017-05-05T08:23:17.639Z,11.95
2017-05-05T08:23:58.235Z,11.95
2017-05-05T08:24:38.816Z,11.94
2017-05-05T08:25:19.400Z,12.02
2017-05-05T08:26:00.020Z,11.91
2017-05-05T08:26:40.598Z,11.97
2017-05-05T08:27:21.220Z,12
2017-05-05T08:28:01.874Z,12.02
2017-05-05T08:28:42.548Z,12.02
2017-05-05T08:29:23.113Z,12.07
2017-05-05T08:30:03.710Z,11.97
2017-05-05T08:30:44.276Z,12
2017-05-05T08:31:24.878Z,12
2017-05-05T08:32:05.485Z,11.99
2017-05-05T08:32:46.101Z,12.09
2017-05-05T08:33:26.704Z,12.04
2017-05-05T08:34:07.298Z,12.09
2017-05-05T08:34:47.889Z,12.12
2017-05-05T08:35:28.567Z,12.1
2017-05-05T08:36:09.110Z,12.12
2017-05-05T08:36:49.685Z,12.1
2017-05-05T08:37:30.305Z,12.12
2017-05-05T08:38:10.887Z,12.09
2017-05-05T08:38:51.480Z,12.15
2017-05-05T08:39:32.059Z,12.15
2017-05-05T08:40:12.646Z,12.12
2017-05-05T08:40:53.234Z,12.15
2017-05-05T08:41:33.828Z,12.1
2017-05-05T08:42:14.442Z,12.17
2017-05-05T08:42:55.018Z,12.22
2017-05-05T08:43:35.612Z,12.13
2017-05-05T08:44:16.190Z,12.18
2017-05-05T08:44:56.780Z,12.21
2017-05-05T08:45:37.346Z,12.21